sensor_id;sensor_type;location;lat;lon;timestamp;temperature;humidity
68248;SHT30;55064;49.636;12.164;2023-02-12T00:01:33;2.13;95.87
68248;SHT30;55064;49.636;12.164;2023-02-12T00:03:59;2.14;96.00
68248;SHT30;55064;49.636;12.164;2023-02-12T00:06:24;2.18;95.97
68248;SHT30;55064;49.636;12.164;2023-02-12T00:08:51;2.18;95.90
68248;SHT30;55064;49.636;12.164;2023-02-12T00:11:21;2.13;96.10
68248;SHT30;55064;49.636;12.164;2023-02-12T00:13:46;2.13;96.18
68248;SHT30;55064;49.636;12.164;2023-02-12T00:16:16;2.14;96.07
68248;SHT30;55064;49.636;12.164;2023-02-12T00:18:42;2.18;96.47
68248;SHT30;55064;49.636;12.164;2023-02-12T00:21:07;2.25;96.74
68248;SHT30;55064;49.636;12.164;2023-02-12T00:23:37;2.25;96.47
68248;SHT30;55064;49.636;12.164;2023-02-12T00:26:16;2.29;96.43
68248;SHT30;55064;49.636;12.164;2023-02-12T00:28:43;2.31;96.62
68248;SHT30;55064;49.636;12.164;2023-02-12T00:31:12;2.31;96.58
68248;SHT30;55064;49.636;12.164;2023-02-12T00:33:37;2.36;97.00
68248;SHT30;55064;49.636;12.164;2023-02-12T00:36:03;2.36;96.73
68248;SHT30;55064;49.636;12.164;2023-02-12T00:38:29;2.36;96.45
68248;SHT30;55064;49.636;12.164;2023-02-12T00:40:55;2.35;96.32
68248;SHT30;55064;49.636;12.164;2023-02-12T00:43:22;2.35;96.50
68248;SHT30;55064;49.636;12.164;2023-02-12T00:45:48;2.38;96.64
68248;SHT30;55064;49.636;12.164;2023-02-12T00:48:14;2.36;96.91
68248;SHT30;55064;49.636;12.164;2023-02-12T00:50:43;2.35;96.74
68248;SHT30;55064;49.636;12.164;2023-02-12T00:53:09;2.41;97.15
68248;SHT30;55064;49.636;12.164;2023-02-12T00:55:36;2.45;97.29
68248;SHT30;55064;49.636;12.164;2023-02-12T00:58:02;2.50;97.07
68248;SHT30;55064;49.636;12.164;2023-02-12T01:00:27;2.50;96.48
68248;SHT30;55064;49.636;12.164;2023-02-12T01:02:53;2.50;96.49
68248;SHT30;55064;49.636;12.164;2023-02-12T01:05:18;2.46;96.10
68248;SHT30;55064;49.636;12.164;2023-02-12T01:07:51;2.53;96.07
68248;SHT30;55064;49.636;12.164;2023-02-12T01:10:19;2.50;96.18
68248;SHT30;55064;49.636;12.164;2023-02-12T01:12:46;2.48;96.37
68248;SHT30;55064;49.636;12.164;2023-02-12T01:15:12;2.42;96.54
68248;SHT30;55064;49.636;12.164;2023-02-12T01:17:38;2.41;96.63
68248;SHT30;55064;49.636;12.164;2023-02-12T01:20:06;2.42;96.75
68248;SHT30;55064;49.636;12.164;2023-02-12T01:22:35;2.44;97.24
68248;SHT30;55064;49.636;12.164;2023-02-12T01:25:03;2.45;97.16
68248;SHT30;55064;49.636;12.164;2023-02-12T01:27:31;2.44;97.52
68248;SHT30;55064;49.636;12.164;2023-02-12T01:29:59;2.48;97.58
68248;SHT30;55064;49.636;12.164;2023-02-12T01:32:24;2.52;97.67
68248;SHT30;55064;49.636;12.164;2023-02-12T01:34:49;2.52;97.45
68248;SHT30;55064;49.636;12.164;2023-02-12T01:37:15;2.52;97.63
68248;SHT30;55064;49.636;12.164;2023-02-12T01:39:47;2.55;97.72
68248;SHT30;55064;49.636;12.164;2023-02-12T01:42:14;2.56;97.97
68248;SHT30;55064;49.636;12.164;2023-02-12T01:44:45;2.56;98.22
68248;SHT30;55064;49.636;12.164;2023-02-12T01:47:29;2.57;98.12
68248;SHT30;55064;49.636;12.164;2023-02-12T01:49:55;2.56;97.94
68248;SHT30;55064;49.636;12.164;2023-02-12T01:52:29;2.57;98.13
68248;SHT30;55064;49.636;12.164;2023-02-12T01:54:59;2.53;97.66
68248;SHT30;55064;49.636;12.164;2023-02-12T01:57:27;2.46;97.73
68248;SHT30;55064;49.636;12.164;2023-02-12T01:59:55;2.49;97.67
68248;SHT30;55064;49.636;12.164;2023-02-12T02:02:21;2.45;97.62
68248;SHT30;55064;49.636;12.164;2023-02-12T02:04:51;2.44;97.66
68248;SHT30;55064;49.636;12.164;2023-02-12T02:07:21;2.46;97.63
68248;SHT30;55064;49.636;12.164;2023-02-12T02:09:47;2.52;97.46
68248;SHT30;55064;49.636;12.164;2023-02-12T02:12:14;2.60;97.36
68248;SHT30;55064;49.636;12.164;2023-02-12T02:15:01;2.62;97.60
68248;SHT30;55064;49.636;12.164;2023-02-12T02:23:39;2.42;97.75
68248;SHT30;55064;49.636;12.164;2023-02-12T02:31:20;2.48;97.96
68248;SHT30;55064;49.636;12.164;2023-02-12T02:33:54;2.55;97.92
68248;SHT30;55064;49.636;12.164;2023-02-12T02:38:59;2.39;98.21
68248;SHT30;55064;49.636;12.164;2023-02-12T02:41:46;2.44;97.85
68248;SHT30;55064;49.636;12.164;2023-02-12T02:44:17;2.39;97.91
68248;SHT30;55064;49.636;12.164;2023-02-12T02:46:49;2.36;98.07
68248;SHT30;55064;49.636;12.164;2023-02-12T02:49:20;2.34;98.10
68248;SHT30;55064;49.636;12.164;2023-02-12T02:51:54;2.38;98.12
68248;SHT30;55064;49.636;12.164;2023-02-12T02:54:30;2.36;98.44
68248;SHT30;55064;49.636;12.164;2023-02-12T02:57:04;2.38;98.54
68248;SHT30;55064;49.636;12.164;2023-02-12T02:59:36;2.41;98.62
68248;SHT30;55064;49.636;12.164;2023-02-12T03:02:31;2.38;98.57
68248;SHT30;55064;49.636;12.164;2023-02-12T03:05:01;2.38;98.39
68248;SHT30;55064;49.636;12.164;2023-02-12T03:07:32;2.39;98.37
68248;SHT30;55064;49.636;12.164;2023-02-12T03:15:24;2.39;98.68
68248;SHT30;55064;49.636;12.164;2023-02-12T03:17:51;2.44;98.67
68248;SHT30;55064;49.636;12.164;2023-02-12T03:20:22;2.45;98.70
68248;SHT30;55064;49.636;12.164;2023-02-12T03:22:54;2.44;98.59
68248;SHT30;55064;49.636;12.164;2023-02-12T03:25:28;2.44;98.85
68248;SHT30;55064;49.636;12.164;2023-02-12T03:28:09;2.53;98.87
68248;SHT30;55064;49.636;12.164;2023-02-12T03:30:47;2.46;98.78
68248;SHT30;55064;49.636;12.164;2023-02-12T03:33:48;2.42;98.93
68248;SHT30;55064;49.636;12.164;2023-02-12T03:39:47;2.36;98.99
68248;SHT30;55064;49.636;12.164;2023-02-12T03:42:55;2.32;98.94
68248;SHT30;55064;49.636;12.164;2023-02-12T03:45:49;2.31;98.69
68248;SHT30;55064;49.636;12.164;2023-02-12T03:51:32;2.31;98.88
68248;SHT30;55064;49.636;12.164;2023-02-12T03:53:59;2.24;98.84
68248;SHT30;55064;49.636;12.164;2023-02-12T03:58:57;2.17;99.21
68248;SHT30;55064;49.636;12.164;2023-02-12T04:01:23;2.17;99.37
68248;SHT30;55064;49.636;12.164;2023-02-12T04:03:48;2.22;99.26
68248;SHT30;55064;49.636;12.164;2023-02-12T04:06:23;2.21;99.05
68248;SHT30;55064;49.636;12.164;2023-02-12T04:08:52;2.21;99.13
68248;SHT30;55064;49.636;12.164;2023-02-12T04:14:36;2.14;99.17
68248;SHT30;55064;49.636;12.164;2023-02-12T04:17:08;2.10;99.04
68248;SHT30;55064;49.636;12.164;2023-02-12T04:22:53;2.10;99.16
68248;SHT30;55064;49.636;12.164;2023-02-12T04:28:08;2.03;99.43
68248;SHT30;55064;49.636;12.164;2023-02-12T04:30:42;2.06;99.24
68248;SHT30;55064;49.636;12.164;2023-02-12T04:33:10;2.08;99.31
68248;SHT30;55064;49.636;12.164;2023-02-12T04:35:49;2.06;99.52
68248;SHT30;55064;49.636;12.164;2023-02-12T04:40:44;2.10;98.94
68248;SHT30;55064;49.636;12.164;2023-02-12T04:43:09;2.11;98.99
68248;SHT30;55064;49.636;12.164;2023-02-12T04:45:35;2.10;99.18
68248;SHT30;55064;49.636;12.164;2023-02-12T04:48:02;2.06;99.06
68248;SHT30;55064;49.636;12.164;2023-02-12T04:50:39;2.08;99.15
68248;SHT30;55064;49.636;12.164;2023-02-12T04:53:06;2.18;99.21
68248;SHT30;55064;49.636;12.164;2023-02-12T04:55:35;2.21;99.55
68248;SHT30;55064;49.636;12.164;2023-02-12T04:58:03;2.21;99.48
68248;SHT30;55064;49.636;12.164;2023-02-12T05:00:29;2.18;99.71
68248;SHT30;55064;49.636;12.164;2023-02-12T05:02:55;2.21;99.74
68248;SHT30;55064;49.636;12.164;2023-02-12T05:05:23;2.25;99.75
68248;SHT30;55064;49.636;12.164;2023-02-12T05:07:48;2.25;99.99
68248;SHT30;55064;49.636;12.164;2023-02-12T05:10:17;2.28;99.99
68248;SHT30;55064;49.636;12.164;2023-02-12T05:12:42;2.36;99.99
68248;SHT30;55064;49.636;12.164;2023-02-12T05:15:08;2.35;99.99
68248;SHT30;55064;49.636;12.164;2023-02-12T05:17:33;2.35;99.99
68248;SHT30;55064;49.636;12.164;2023-02-12T05:19:59;2.32;99.99
68248;SHT30;55064;49.636;12.164;2023-02-12T05:22:24;2.32;99.99
68248;SHT30;55064;49.636;12.164;2023-02-12T05:24:50;2.32;99.99
68248;SHT30;55064;49.636;12.164;2023-02-12T05:27:15;2.36;99.99
68248;SHT30;55064;49.636;12.164;2023-02-12T05:29:40;2.46;99.99
68248;SHT30;55064;49.636;12.164;2023-02-12T05:32:08;2.46;99.99
68248;SHT30;55064;49.636;12.164;2023-02-12T05:34:34;2.59;99.99
68248;SHT30;55064;49.636;12.164;2023-02-12T05:36:59;2.57;99.80
68248;SHT30;55064;49.636;12.164;2023-02-12T05:39:25;2.42;99.28
68248;SHT30;55064;49.636;12.164;2023-02-12T05:41:52;2.41;99.83
68248;SHT30;55064;49.636;12.164;2023-02-12T05:44:18;2.26;99.59
68248;SHT30;55064;49.636;12.164;2023-02-12T05:46:43;2.13;99.67
68248;SHT30;55064;49.636;12.164;2023-02-12T05:49:09;2.17;99.99
68248;SHT30;55064;49.636;12.164;2023-02-12T05:51:35;2.14;99.99
68248;SHT30;55064;49.636;12.164;2023-02-12T05:54:04;2.14;99.99
68248;SHT30;55064;49.636;12.164;2023-02-12T05:56:32;2.20;99.99
68248;SHT30;55064;49.636;12.164;2023-02-12T05:59:01;2.28;99.99
68248;SHT30;55064;49.636;12.164;2023-02-12T06:01:35;2.28;99.99
68248;SHT30;55064;49.636;12.164;2023-02-12T06:04:03;2.29;99.99
68248;SHT30;55064;49.636;12.164;2023-02-12T06:06:30;2.34;99.99
68248;SHT30;55064;49.636;12.164;2023-02-12T06:08:59;2.35;99.99
68248;SHT30;55064;49.636;12.164;2023-02-12T06:11:27;2.35;99.99
68248;SHT30;55064;49.636;12.164;2023-02-12T06:13:52;2.28;99.99
68248;SHT30;55064;49.636;12.164;2023-02-12T06:16:23;2.25;99.99
68248;SHT30;55064;49.636;12.164;2023-02-12T06:18:49;2.22;99.99
68248;SHT30;55064;49.636;12.164;2023-02-12T06:21:16;2.22;99.99
68248;SHT30;55064;49.636;12.164;2023-02-12T06:23:41;2.26;99.99
68248;SHT30;55064;49.636;12.164;2023-02-12T06:26:07;2.24;99.99
68248;SHT30;55064;49.636;12.164;2023-02-12T06:28:33;2.34;99.99
68248;SHT30;55064;49.636;12.164;2023-02-12T06:30:58;2.28;99.99
68248;SHT30;55064;49.636;12.164;2023-02-12T06:33:23;2.28;99.99
68248;SHT30;55064;49.636;12.164;2023-02-12T06:35:50;2.26;99.96
68248;SHT30;55064;49.636;12.164;2023-02-12T06:38:15;2.24;99.98
68248;SHT30;55064;49.636;12.164;2023-02-12T06:40:41;2.28;99.99
68248;SHT30;55064;49.636;12.164;2023-02-12T06:43:06;2.21;99.99
68248;SHT30;55064;49.636;12.164;2023-02-12T06:45:35;2.21;99.99
68248;SHT30;55064;49.636;12.164;2023-02-12T06:48:00;2.25;99.99
68248;SHT30;55064;49.636;12.164;2023-02-12T06:50:27;2.21;99.99
68248;SHT30;55064;49.636;12.164;2023-02-12T06:52:54;2.22;99.99
68248;SHT30;55064;49.636;12.164;2023-02-12T06:55:21;2.34;99.99
68248;SHT30;55064;49.636;12.164;2023-02-12T06:57:47;2.22;99.68
68248;SHT30;55064;49.636;12.164;2023-02-12T07:00:12;2.20;99.92
68248;SHT30;55064;49.636;12.164;2023-02-12T07:02:38;2.15;99.99
68248;SHT30;55064;49.636;12.164;2023-02-12T07:05:05;2.20;99.99
68248;SHT30;55064;49.636;12.164;2023-02-12T07:07:31;2.18;99.99
68248;SHT30;55064;49.636;12.164;2023-02-12T07:09:58;2.21;99.99
68248;SHT30;55064;49.636;12.164;2023-02-12T07:12:24;2.20;99.99
68248;SHT30;55064;49.636;12.164;2023-02-12T07:14:49;2.24;99.99
68248;SHT30;55064;49.636;12.164;2023-02-12T07:17:15;2.25;99.99
68248;SHT30;55064;49.636;12.164;2023-02-12T07:19:40;2.25;99.99
68248;SHT30;55064;49.636;12.164;2023-02-12T07:22:05;2.25;99.99
68248;SHT30;55064;49.636;12.164;2023-02-12T07:24:31;2.26;99.99
68248;SHT30;55064;49.636;12.164;2023-02-12T07:26:56;2.32;99.99
68248;SHT30;55064;49.636;12.164;2023-02-12T07:29:21;2.36;99.99
68248;SHT30;55064;49.636;12.164;2023-02-12T07:31:48;2.38;99.99
68248;SHT30;55064;49.636;12.164;2023-02-12T07:34:13;2.39;99.99
68248;SHT30;55064;49.636;12.164;2023-02-12T07:36:41;2.48;99.99
68248;SHT30;55064;49.636;12.164;2023-02-12T07:39:10;2.48;99.99
68248;SHT30;55064;49.636;12.164;2023-02-12T07:41:35;2.46;99.99
68248;SHT30;55064;49.636;12.164;2023-02-12T07:44:04;2.42;99.95
68248;SHT30;55064;49.636;12.164;2023-02-12T07:46:37;2.42;99.91
68248;SHT30;55064;49.636;12.164;2023-02-12T07:49:04;2.38;99.99
68248;SHT30;55064;49.636;12.164;2023-02-12T07:51:33;2.39;99.99
68248;SHT30;55064;49.636;12.164;2023-02-12T07:54:02;2.45;99.99
68248;SHT30;55064;49.636;12.164;2023-02-12T07:56:34;2.62;99.49
68248;SHT30;55064;49.636;12.164;2023-02-12T07:59:06;2.67;99.31
68248;SHT30;55064;49.636;12.164;2023-02-12T08:01:34;2.70;99.28
68248;SHT30;55064;49.636;12.164;2023-02-12T08:04:05;2.69;99.16
68248;SHT30;55064;49.636;12.164;2023-02-12T08:06:33;2.63;98.92
68248;SHT30;55064;49.636;12.164;2023-02-12T08:09:01;2.60;99.20
68248;SHT30;55064;49.636;12.164;2023-02-12T08:11:35;2.59;99.29
68248;SHT30;55064;49.636;12.164;2023-02-12T08:14:01;2.62;99.34
68248;SHT30;55064;49.636;12.164;2023-02-12T08:16:28;2.62;99.13
68248;SHT30;55064;49.636;12.164;2023-02-12T08:18:54;2.60;99.20
68248;SHT30;55064;49.636;12.164;2023-02-12T08:21:22;2.66;99.72
68248;SHT30;55064;49.636;12.164;2023-02-12T08:23:48;2.76;99.82
68248;SHT30;55064;49.636;12.164;2023-02-12T08:26:26;2.76;99.80
68248;SHT30;55064;49.636;12.164;2023-02-12T08:29:01;2.80;99.81
68248;SHT30;55064;49.636;12.164;2023-02-12T08:31:32;2.87;99.99
68248;SHT30;55064;49.636;12.164;2023-02-12T08:33:59;2.86;99.99
68248;SHT30;55064;49.636;12.164;2023-02-12T08:36:35;2.87;99.99
68248;SHT30;55064;49.636;12.164;2023-02-12T08:39:01;2.94;99.99
68248;SHT30;55064;49.636;12.164;2023-02-12T08:41:27;2.99;99.99
68248;SHT30;55064;49.636;12.164;2023-02-12T08:43:55;2.96;99.99
68248;SHT30;55064;49.636;12.164;2023-02-12T08:46:23;3.01;99.99
68248;SHT30;55064;49.636;12.164;2023-02-12T08:48:52;3.08;99.99
68248;SHT30;55064;49.636;12.164;2023-02-12T08:51:20;3.08;99.99
68248;SHT30;55064;49.636;12.164;2023-02-12T08:53:52;3.21;99.99
68248;SHT30;55064;49.636;12.164;2023-02-12T08:56:18;3.19;99.99
68248;SHT30;55064;49.636;12.164;2023-02-12T08:58:44;3.21;99.99
68248;SHT30;55064;49.636;12.164;2023-02-12T09:01:15;3.27;99.99
68248;SHT30;55064;49.636;12.164;2023-02-12T09:03:41;3.28;99.99
68248;SHT30;55064;49.636;12.164;2023-02-12T09:06:09;3.29;99.99
68248;SHT30;55064;49.636;12.164;2023-02-12T09:08:36;3.51;99.99
68248;SHT30;55064;49.636;12.164;2023-02-12T09:11:14;3.65;99.88
68248;SHT30;55064;49.636;12.164;2023-02-12T09:13:44;3.74;99.51
68248;SHT30;55064;49.636;12.164;2023-02-12T09:16:11;3.69;99.04
68248;SHT30;55064;49.636;12.164;2023-02-12T09:18:37;3.66;99.09
68248;SHT30;55064;49.636;12.164;2023-02-12T09:21:05;3.63;99.24
68248;SHT30;55064;49.636;12.164;2023-02-12T09:23:37;3.76;99.36
68248;SHT30;55064;49.636;12.164;2023-02-12T09:26:07;3.79;98.91
68248;SHT30;55064;49.636;12.164;2023-02-12T09:28:34;3.90;98.85
68248;SHT30;55064;49.636;12.164;2023-02-12T09:31:11;3.91;98.55
68248;SHT30;55064;49.636;12.164;2023-02-12T09:33:36;3.98;98.29
68248;SHT30;55064;49.636;12.164;2023-02-12T09:36:07;4.00;98.34
68248;SHT30;55064;49.636;12.164;2023-02-12T09:38:33;4.08;98.17
68248;SHT30;55064;49.636;12.164;2023-02-12T09:49:47;4.12;97.61
68248;SHT30;55064;49.636;12.164;2023-02-12T09:52:20;4.12;97.66
68248;SHT30;55064;49.636;12.164;2023-02-12T09:54:47;4.11;97.65
68248;SHT30;55064;49.636;12.164;2023-02-12T09:57:18;4.14;97.64
68248;SHT30;55064;49.636;12.164;2023-02-12T10:00:03;4.17;97.52
68248;SHT30;55064;49.636;12.164;2023-02-12T10:02:34;4.22;97.38
68248;SHT30;55064;49.636;12.164;2023-02-12T10:05:00;4.27;97.16
68248;SHT30;55064;49.636;12.164;2023-02-12T10:07:35;4.28;96.96
68248;SHT30;55064;49.636;12.164;2023-02-12T10:21:27;4.38;96.53
68248;SHT30;55064;49.636;12.164;2023-02-12T10:26:48;4.41;96.73
68248;SHT30;55064;49.636;12.164;2023-02-12T10:29:22;4.38;96.86
68248;SHT30;55064;49.636;12.164;2023-02-12T10:31:59;4.41;96.89
68248;SHT30;55064;49.636;12.164;2023-02-12T10:34:33;4.49;96.75
68248;SHT30;55064;49.636;12.164;2023-02-12T10:39:42;4.58;96.39
68248;SHT30;55064;49.636;12.164;2023-02-12T10:42:15;4.69;96.16
68248;SHT30;55064;49.636;12.164;2023-02-12T10:44:42;4.67;96.06
68248;SHT30;55064;49.636;12.164;2023-02-12T10:47:19;4.76;95.80
68248;SHT30;55064;49.636;12.164;2023-02-12T10:49:50;4.87;95.41
68248;SHT30;55064;49.636;12.164;2023-02-12T10:54:48;4.81;95.52
68248;SHT30;55064;49.636;12.164;2023-02-12T10:57:17;4.88;95.31
68248;SHT30;55064;49.636;12.164;2023-02-12T10:59:47;5.08;94.76
68248;SHT30;55064;49.636;12.164;2023-02-12T11:04:48;5.28;93.72
68248;SHT30;55064;49.636;12.164;2023-02-12T11:07:14;5.30;93.47
68248;SHT30;55064;49.636;12.164;2023-02-12T11:09:41;5.28;93.68
68248;SHT30;55064;49.636;12.164;2023-02-12T11:12:32;5.32;93.95
68248;SHT30;55064;49.636;12.164;2023-02-12T11:15:21;5.38;93.50
68248;SHT30;55064;49.636;12.164;2023-02-12T11:17:59;5.45;93.06
68248;SHT30;55064;49.636;12.164;2023-02-12T11:20:26;5.49;92.99
68248;SHT30;55064;49.636;12.164;2023-02-12T11:22:59;5.39;93.30
68248;SHT30;55064;49.636;12.164;2023-02-12T11:25:36;5.43;92.91
68248;SHT30;55064;49.636;12.164;2023-02-12T11:28:09;5.43;93.14
68248;SHT30;55064;49.636;12.164;2023-02-12T11:31:03;5.45;93.15
68248;SHT30;55064;49.636;12.164;2023-02-12T11:33:41;5.49;92.81
68248;SHT30;55064;49.636;12.164;2023-02-12T11:36:24;5.45;93.11
68248;SHT30;55064;49.636;12.164;2023-02-12T11:38:57;5.48;93.41
68248;SHT30;55064;49.636;12.164;2023-02-12T11:41:34;5.41;93.36
68248;SHT30;55064;49.636;12.164;2023-02-12T11:46:54;5.58;92.59
68248;SHT30;55064;49.636;12.164;2023-02-12T11:49:26;5.63;92.82
68248;SHT30;55064;49.636;12.164;2023-02-12T11:51:55;5.59;92.85
68248;SHT30;55064;49.636;12.164;2023-02-12T11:54:27;5.62;92.55
68248;SHT30;55064;49.636;12.164;2023-02-12T11:56:54;5.56;92.90
68248;SHT30;55064;49.636;12.164;2023-02-12T12:01:51;5.62;92.77
68248;SHT30;55064;49.636;12.164;2023-02-12T12:04:21;5.62;92.76
68248;SHT30;55064;49.636;12.164;2023-02-12T12:06:52;5.67;92.70
68248;SHT30;55064;49.636;12.164;2023-02-12T12:09:26;5.48;93.52
68248;SHT30;55064;49.636;12.164;2023-02-12T12:14:53;5.66;93.11
68248;SHT30;55064;49.636;12.164;2023-02-12T12:17:49;5.74;92.48
68248;SHT30;55064;49.636;12.164;2023-02-12T12:23:22;5.71;92.74
68248;SHT30;55064;49.636;12.164;2023-02-12T12:25:52;5.66;92.95
68248;SHT30;55064;49.636;12.164;2023-02-12T12:33:43;5.60;93.53
68248;SHT30;55064;49.636;12.164;2023-02-12T12:41:50;5.87;92.62
68248;SHT30;55064;49.636;12.164;2023-02-12T12:47:18;5.73;93.40
68248;SHT30;55064;49.636;12.164;2023-02-12T12:52:42;5.69;93.58
68248;SHT30;55064;49.636;12.164;2023-02-12T13:03:31;5.77;93.66
68248;SHT30;55064;49.636;12.164;2023-02-12T13:06:25;5.76;93.76
68248;SHT30;55064;49.636;12.164;2023-02-12T13:17:45;5.91;93.48
68248;SHT30;55064;49.636;12.164;2023-02-12T13:22:46;6.03;93.19
68248;SHT30;55064;49.636;12.164;2023-02-12T13:25:25;6.03;93.20
68248;SHT30;55064;49.636;12.164;2023-02-12T13:27:54;6.07;93.14
68248;SHT30;55064;49.636;12.164;2023-02-12T13:30:28;5.98;93.33
68248;SHT30;55064;49.636;12.164;2023-02-12T13:35:23;5.91;93.99
68248;SHT30;55064;49.636;12.164;2023-02-12T13:37:53;5.87;93.98
68248;SHT30;55064;49.636;12.164;2023-02-12T13:40:25;5.98;93.95
68248;SHT30;55064;49.636;12.164;2023-02-12T13:57:30;5.67;95.52
68248;SHT30;55064;49.636;12.164;2023-02-12T14:00:04;5.66;95.52
68248;SHT30;55064;49.636;12.164;2023-02-12T14:09:39;5.77;95.47
68248;SHT30;55064;49.636;12.164;2023-02-12T14:15:33;5.97;95.24
68248;SHT30;55064;49.636;12.164;2023-02-12T14:18:23;6.04;95.20
68248;SHT30;55064;49.636;12.164;2023-02-12T14:23:43;5.91;95.12
68248;SHT30;55064;49.636;12.164;2023-02-12T14:26:14;5.83;95.65
68248;SHT30;55064;49.636;12.164;2023-02-12T14:28:53;5.87;95.81
68248;SHT30;55064;49.636;12.164;2023-02-12T14:34:35;5.94;95.74
68248;SHT30;55064;49.636;12.164;2023-02-12T14:36:45;5.97;95.81
68248;SHT30;55064;49.636;12.164;2023-02-12T14:41:49;6.00;96.08
68248;SHT30;55064;49.636;12.164;2023-02-12T14:47:10;6.03;95.85
68248;SHT30;55064;49.636;12.164;2023-02-12T14:54:50;6.01;95.74
68248;SHT30;55064;49.636;12.164;2023-02-12T14:57:37;6.00;95.83
68248;SHT30;55064;49.636;12.164;2023-02-12T15:05:29;6.06;95.67
68248;SHT30;55064;49.636;12.164;2023-02-12T15:08:49;6.03;95.79
68248;SHT30;55064;49.636;12.164;2023-02-12T15:10:58;6.06;95.84
68248;SHT30;55064;49.636;12.164;2023-02-12T15:13:29;6.03;96.08
68248;SHT30;55064;49.636;12.164;2023-02-12T15:16:14;6.01;96.18
68248;SHT30;55064;49.636;12.164;2023-02-12T15:18:54;5.97;96.29
68248;SHT30;55064;49.636;12.164;2023-02-12T15:24:20;6.03;96.05
68248;SHT30;55064;49.636;12.164;2023-02-12T15:26:52;6.08;95.88
68248;SHT30;55064;49.636;12.164;2023-02-12T15:29:23;5.98;95.97
68248;SHT30;55064;49.636;12.164;2023-02-12T15:32:01;5.91;96.04
68248;SHT30;55064;49.636;12.164;2023-02-12T15:34:30;5.86;96.27
68248;SHT30;55064;49.636;12.164;2023-02-12T15:36:59;5.89;96.21
68248;SHT30;55064;49.636;12.164;2023-02-12T15:39:25;5.83;96.04
68248;SHT30;55064;49.636;12.164;2023-02-12T15:41:52;5.80;96.13
68248;SHT30;55064;49.636;12.164;2023-02-12T15:44:26;5.76;96.14
68248;SHT30;55064;49.636;12.164;2023-02-12T15:46:57;5.79;96.17
68248;SHT30;55064;49.636;12.164;2023-02-12T15:49:34;5.77;96.14
68248;SHT30;55064;49.636;12.164;2023-02-12T15:52:13;5.71;96.14
68248;SHT30;55064;49.636;12.164;2023-02-12T15:54:39;5.76;96.02
68248;SHT30;55064;49.636;12.164;2023-02-12T15:57:09;5.86;95.94
68248;SHT30;55064;49.636;12.164;2023-02-12T15:59:37;5.89;95.73
68248;SHT30;55064;49.636;12.164;2023-02-12T16:02:17;5.83;95.84
68248;SHT30;55064;49.636;12.164;2023-02-12T16:04:43;5.80;95.88
68248;SHT30;55064;49.636;12.164;2023-02-12T16:07:10;5.65;95.34
68248;SHT30;55064;49.636;12.164;2023-02-12T16:09:36;5.46;95.21
68248;SHT30;55064;49.636;12.164;2023-02-12T16:12:04;5.38;95.35
68248;SHT30;55064;49.636;12.164;2023-02-12T16:14:46;5.31;95.29
68248;SHT30;55064;49.636;12.164;2023-02-12T16:17:27;5.24;95.47
68248;SHT30;55064;49.636;12.164;2023-02-12T16:22:47;5.13;95.59
68248;SHT30;55064;49.636;12.164;2023-02-12T16:27:52;5.01;95.34
68248;SHT30;55064;49.636;12.164;2023-02-12T16:30:30;4.93;95.35
68248;SHT30;55064;49.636;12.164;2023-02-12T16:32:56;4.91;95.63
68248;SHT30;55064;49.636;12.164;2023-02-12T16:38:37;4.86;95.84
68248;SHT30;55064;49.636;12.164;2023-02-12T16:43:46;4.73;96.53
68248;SHT30;55064;49.636;12.164;2023-02-12T16:46:13;4.66;96.56
68248;SHT30;55064;49.636;12.164;2023-02-12T16:48:43;4.55;96.81
68248;SHT30;55064;49.636;12.164;2023-02-12T16:53:57;4.44;97.46
68248;SHT30;55064;49.636;12.164;2023-02-12T16:56:26;4.38;97.58
68248;SHT30;55064;49.636;12.164;2023-02-12T16:58:54;4.38;97.76
68248;SHT30;55064;49.636;12.164;2023-02-12T17:01:34;4.37;97.68
68248;SHT30;55064;49.636;12.164;2023-02-12T17:04:06;4.34;97.58
68248;SHT30;55064;49.636;12.164;2023-02-12T17:06:33;4.32;97.47
68248;SHT30;55064;49.636;12.164;2023-02-12T17:08:59;4.28;97.50
68248;SHT30;55064;49.636;12.164;2023-02-12T17:11:30;4.29;97.38
68248;SHT30;55064;49.636;12.164;2023-02-12T17:13:56;4.25;97.30
68248;SHT30;55064;49.636;12.164;2023-02-12T17:16:24;4.20;97.41
68248;SHT30;55064;49.636;12.164;2023-02-12T17:18:49;4.21;97.49
68248;SHT30;55064;49.636;12.164;2023-02-12T17:21:27;4.21;97.40
68248;SHT30;55064;49.636;12.164;2023-02-12T17:23:55;4.21;97.21
68248;SHT30;55064;49.636;12.164;2023-02-12T17:26:25;4.28;97.08
68248;SHT30;55064;49.636;12.164;2023-02-12T17:28:50;4.28;96.83
68248;SHT30;55064;49.636;12.164;2023-02-12T17:31:15;4.25;96.93
68248;SHT30;55064;49.636;12.164;2023-02-12T17:33:41;4.24;97.11
68248;SHT30;55064;49.636;12.164;2023-02-12T17:36:06;4.22;97.14
68248;SHT30;55064;49.636;12.164;2023-02-12T17:38:35;4.17;97.07
68248;SHT30;55064;49.636;12.164;2023-02-12T17:41:00;4.08;97.30
68248;SHT30;55064;49.636;12.164;2023-02-12T17:43:28;4.08;97.40
68248;SHT30;55064;49.636;12.164;2023-02-12T17:45:55;4.10;97.69
68248;SHT30;55064;49.636;12.164;2023-02-12T17:48:24;4.17;97.48
68248;SHT30;55064;49.636;12.164;2023-02-12T17:50:54;4.15;97.44
68248;SHT30;55064;49.636;12.164;2023-02-12T17:53:21;4.12;97.53
68248;SHT30;55064;49.636;12.164;2023-02-12T17:55:47;4.10;97.49
68248;SHT30;55064;49.636;12.164;2023-02-12T17:58:13;4.10;97.33
68248;SHT30;55064;49.636;12.164;2023-02-12T18:00:41;4.04;97.39
68248;SHT30;55064;49.636;12.164;2023-02-12T18:03:06;4.07;97.50
68248;SHT30;55064;49.636;12.164;2023-02-12T18:05:38;4.14;97.32
68248;SHT30;55064;49.636;12.164;2023-02-12T18:08:05;4.15;97.27
68248;SHT30;55064;49.636;12.164;2023-02-12T18:10:37;4.12;97.10
68248;SHT30;55064;49.636;12.164;2023-02-12T18:13:03;4.07;97.31
68248;SHT30;55064;49.636;12.164;2023-02-12T18:15:30;4.00;97.42
68248;SHT30;55064;49.636;12.164;2023-02-12T18:17:57;4.03;97.42
68248;SHT30;55064;49.636;12.164;2023-02-12T18:20:22;4.05;97.26
68248;SHT30;55064;49.636;12.164;2023-02-12T18:22:50;4.00;97.29
68248;SHT30;55064;49.636;12.164;2023-02-12T18:25:19;4.00;97.27
68248;SHT30;55064;49.636;12.164;2023-02-12T18:27:44;4.01;97.29
68248;SHT30;55064;49.636;12.164;2023-02-12T18:30:10;3.97;97.32
68248;SHT30;55064;49.636;12.164;2023-02-12T18:32:35;3.87;98.00
68248;SHT30;55064;49.636;12.164;2023-02-12T18:35:05;3.91;98.02
68248;SHT30;55064;49.636;12.164;2023-02-12T18:37:32;3.87;98.05
68248;SHT30;55064;49.636;12.164;2023-02-12T18:39:57;3.84;98.15
68248;SHT30;55064;49.636;12.164;2023-02-12T18:42:23;3.84;98.16
68248;SHT30;55064;49.636;12.164;2023-02-12T18:44:50;3.86;98.13
68248;SHT30;55064;49.636;12.164;2023-02-12T18:47:15;3.87;97.99
68248;SHT30;55064;49.636;12.164;2023-02-12T18:49:41;3.94;98.01
68248;SHT30;55064;49.636;12.164;2023-02-12T18:52:06;4.04;97.69